Terminal Aerodrome Forecast
Issued by NWS

Home | Current Version | Previous Version | Text Only | Print | Product List | Glossary On
Versions: 1 2 3 4 5 6 7 8 9 10 11 12 13 14 15 16 17 18 19 20 21 22 23 24 25 26 27 28 29 30 31 32 33 34 35 36 37 38 39 40
000
FTAK31 PANC 060416 AAA
TAFADU
TAF AMD
PADU 060416Z 0604/0624 27008KT P6SM SCT035 SCT080
     FM060900 19010G18KT P6SM -RA SCT025 OVC035
     FM061400 22015G25KT 5SM -RA SCT008 BKN015=

USA.gov is the U.S. government's official web portal to all federal, state and local government web resources and services.